sensor_id;sensor_type;location;lat;lon;timestamp;P1;durP1;ratioP1;P2;durP2;ratioP2
22111;SDS011;11222;50.872;4.312;2023-01-30T00:01:13;57.38;;;28.70;;
22111;SDS011;11222;50.872;4.312;2023-01-30T00:03:44;55.33;;;29.73;;
22111;SDS011;11222;50.872;4.312;2023-01-30T00:06:10;57.22;;;30.80;;
22111;SDS011;11222;50.872;4.312;2023-01-30T00:08:37;59.65;;;32.53;;
22111;SDS011;11222;50.872;4.312;2023-01-30T00:11:03;52.70;;;30.15;;
22111;SDS011;11222;50.872;4.312;2023-01-30T00:13:30;59.60;;;32.45;;
22111;SDS011;11222;50.872;4.312;2023-01-30T00:15:56;56.58;;;31.17;;
22111;SDS011;11222;50.872;4.312;2023-01-30T00:18:22;58.38;;;31.90;;
22111;SDS011;11222;50.872;4.312;2023-01-30T00:20:48;58.85;;;31.50;;
22111;SDS011;11222;50.872;4.312;2023-01-30T00:23:20;60.67;;;31.40;;
22111;SDS011;11222;50.872;4.312;2023-01-30T00:25:46;55.33;;;30.98;;
22111;SDS011;11222;50.872;4.312;2023-01-30T00:28:11;55.25;;;28.85;;
22111;SDS011;11222;50.872;4.312;2023-01-30T00:30:37;55.08;;;28.73;;
22111;SDS011;11222;50.872;4.312;2023-01-30T00:33:03;51.03;;;28.05;;
22111;SDS011;11222;50.872;4.312;2023-01-30T00:35:28;56.33;;;28.17;;
22111;SDS011;11222;50.872;4.312;2023-01-30T00:37:57;52.85;;;28.73;;
22111;SDS011;11222;50.872;4.312;2023-01-30T00:40:24;51.92;;;29.45;;
22111;SDS011;11222;50.872;4.312;2023-01-30T00:42:51;53.92;;;29.83;;
22111;SDS011;11222;50.872;4.312;2023-01-30T00:45:35;56.30;;;30.50;;
22111;SDS011;11222;50.872;4.312;2023-01-30T00:48:22;55.53;;;29.10;;
22111;SDS011;11222;50.872;4.312;2023-01-30T00:50:48;54.92;;;29.55;;
22111;SDS011;11222;50.872;4.312;2023-01-30T00:53:14;55.28;;;29.95;;
22111;SDS011;11222;50.872;4.312;2023-01-30T00:55:40;50.95;;;27.30;;
22111;SDS011;11222;50.872;4.312;2023-01-30T00:58:07;57.97;;;30.23;;
22111;SDS011;11222;50.872;4.312;2023-01-30T01:00:34;55.58;;;28.25;;
22111;SDS011;11222;50.872;4.312;2023-01-30T01:03:00;51.55;;;27.00;;
22111;SDS011;11222;50.872;4.312;2023-01-30T01:05:26;49.42;;;27.27;;
22111;SDS011;11222;50.872;4.312;2023-01-30T01:07:52;51.20;;;25.73;;
22111;SDS011;11222;50.872;4.312;2023-01-30T01:10:19;52.88;;;27.27;;
22111;SDS011;11222;50.872;4.312;2023-01-30T01:12:45;50.30;;;27.30;;
22111;SDS011;11222;50.872;4.312;2023-01-30T01:15:14;48.50;;;24.95;;
22111;SDS011;11222;50.872;4.312;2023-01-30T01:17:40;49.17;;;27.88;;
22111;SDS011;11222;50.872;4.312;2023-01-30T01:20:07;46.90;;;26.30;;
22111;SDS011;11222;50.872;4.312;2023-01-30T01:22:35;50.88;;;26.90;;
22111;SDS011;11222;50.872;4.312;2023-01-30T01:25:01;49.70;;;26.42;;
22111;SDS011;11222;50.872;4.312;2023-01-30T01:27:27;48.58;;;29.80;;
22111;SDS011;11222;50.872;4.312;2023-01-30T01:29:53;50.35;;;28.55;;
22111;SDS011;11222;50.872;4.312;2023-01-30T01:32:19;51.15;;;27.73;;
22111;SDS011;11222;50.872;4.312;2023-01-30T01:34:45;45.03;;;26.38;;
22111;SDS011;11222;50.872;4.312;2023-01-30T01:37:12;47.55;;;26.83;;
22111;SDS011;11222;50.872;4.312;2023-01-30T01:39:38;44.22;;;25.60;;
22111;SDS011;11222;50.872;4.312;2023-01-30T01:42:25;44.85;;;26.38;;
22111;SDS011;11222;50.872;4.312;2023-01-30T01:47:37;47.65;;;26.40;;
22111;SDS011;11222;50.872;4.312;2023-01-30T01:53:05;51.25;;;26.00;;
22111;SDS011;11222;50.872;4.312;2023-01-30T01:55:34;44.33;;;25.80;;
22111;SDS011;11222;50.872;4.312;2023-01-30T01:58:03;51.92;;;25.25;;
22111;SDS011;11222;50.872;4.312;2023-01-30T02:00:34;44.97;;;25.20;;
22111;SDS011;11222;50.872;4.312;2023-01-30T02:03:00;46.42;;;26.20;;
22111;SDS011;11222;50.872;4.312;2023-01-30T02:05:32;43.47;;;24.33;;
22111;SDS011;11222;50.872;4.312;2023-01-30T02:08:05;42.97;;;23.10;;
22111;SDS011;11222;50.872;4.312;2023-01-30T02:13:25;43.28;;;24.42;;
22111;SDS011;11222;50.872;4.312;2023-01-30T02:15:52;42.60;;;24.95;;
22111;SDS011;11222;50.872;4.312;2023-01-30T02:18:21;41.83;;;22.98;;
22111;SDS011;11222;50.872;4.312;2023-01-30T02:35:09;42.72;;;24.08;;
22111;SDS011;11222;50.872;4.312;2023-01-30T02:48:01;40.92;;;22.55;;
22111;SDS011;11222;50.872;4.312;2023-01-30T02:50:33;40.70;;;21.95;;
22111;SDS011;11222;50.872;4.312;2023-01-30T02:53:02;39.75;;;21.13;;
22111;SDS011;11222;50.872;4.312;2023-01-30T02:55:30;38.67;;;21.98;;
22111;SDS011;11222;50.872;4.312;2023-01-30T02:57:55;41.10;;;22.00;;
22111;SDS011;11222;50.872;4.312;2023-01-30T03:00:23;39.00;;;21.23;;
22111;SDS011;11222;50.872;4.312;2023-01-30T03:03:10;42.58;;;21.85;;
22111;SDS011;11222;50.872;4.312;2023-01-30T03:05:57;40.60;;;21.23;;
22111;SDS011;11222;50.872;4.312;2023-01-30T03:08:41;39.78;;;21.83;;
22111;SDS011;11222;50.872;4.312;2023-01-30T03:11:17;44.70;;;23.40;;
22111;SDS011;11222;50.872;4.312;2023-01-30T03:13:52;38.55;;;21.25;;
22111;SDS011;11222;50.872;4.312;2023-01-30T03:16:43;34.72;;;21.05;;
22111;SDS011;11222;50.872;4.312;2023-01-30T03:19:11;39.20;;;21.20;;
22111;SDS011;11222;50.872;4.312;2023-01-30T03:21:41;42.03;;;22.83;;
22111;SDS011;11222;50.872;4.312;2023-01-30T03:24:08;41.65;;;21.42;;
22111;SDS011;11222;50.872;4.312;2023-01-30T03:26:35;41.47;;;20.75;;
22111;SDS011;11222;50.872;4.312;2023-01-30T03:29:05;42.15;;;22.33;;
22111;SDS011;11222;50.872;4.312;2023-01-30T03:31:30;37.85;;;20.92;;
22111;SDS011;11222;50.872;4.312;2023-01-30T03:33:57;39.05;;;21.17;;
22111;SDS011;11222;50.872;4.312;2023-01-30T03:36:22;36.20;;;20.60;;
22111;SDS011;11222;50.872;4.312;2023-01-30T03:38:49;37.58;;;20.27;;
22111;SDS011;11222;50.872;4.312;2023-01-30T03:41:16;41.25;;;20.25;;
22111;SDS011;11222;50.872;4.312;2023-01-30T03:43:42;33.22;;;18.10;;
22111;SDS011;11222;50.872;4.312;2023-01-30T03:46:07;33.22;;;18.23;;
22111;SDS011;11222;50.872;4.312;2023-01-30T03:48:33;32.63;;;18.77;;
22111;SDS011;11222;50.872;4.312;2023-01-30T03:50:59;32.80;;;17.45;;
22111;SDS011;11222;50.872;4.312;2023-01-30T03:53:24;32.72;;;17.73;;
22111;SDS011;11222;50.872;4.312;2023-01-30T03:55:50;34.90;;;18.33;;
22111;SDS011;11222;50.872;4.312;2023-01-30T03:58:16;31.73;;;17.73;;
22111;SDS011;11222;50.872;4.312;2023-01-30T04:00:41;32.45;;;16.75;;
22111;SDS011;11222;50.872;4.312;2023-01-30T04:03:07;32.75;;;18.25;;
22111;SDS011;11222;50.872;4.312;2023-01-30T04:05:33;31.33;;;17.02;;
22111;SDS011;11222;50.872;4.312;2023-01-30T04:07:58;32.15;;;15.85;;
22111;SDS011;11222;50.872;4.312;2023-01-30T04:10:25;36.25;;;18.63;;
22111;SDS011;11222;50.872;4.312;2023-01-30T04:12:51;29.77;;;17.08;;
22111;SDS011;11222;50.872;4.312;2023-01-30T04:15:16;33.75;;;17.55;;
22111;SDS011;11222;50.872;4.312;2023-01-30T04:17:42;32.25;;;17.98;;
22111;SDS011;11222;50.872;4.312;2023-01-30T04:20:08;39.45;;;17.13;;
22111;SDS011;11222;50.872;4.312;2023-01-30T04:22:34;36.78;;;19.02;;
22111;SDS011;11222;50.872;4.312;2023-01-30T04:25:00;38.45;;;18.70;;
22111;SDS011;11222;50.872;4.312;2023-01-30T04:27:27;33.30;;;16.55;;
22111;SDS011;11222;50.872;4.312;2023-01-30T04:29:52;33.50;;;18.35;;
22111;SDS011;11222;50.872;4.312;2023-01-30T04:32:18;38.45;;;19.30;;
22111;SDS011;11222;50.872;4.312;2023-01-30T04:34:44;35.88;;;18.13;;
22111;SDS011;11222;50.872;4.312;2023-01-30T04:37:10;32.88;;;18.60;;
22111;SDS011;11222;50.872;4.312;2023-01-30T04:39:36;32.63;;;17.75;;
22111;SDS011;11222;50.872;4.312;2023-01-30T04:42:02;34.00;;;17.00;;
22111;SDS011;11222;50.872;4.312;2023-01-30T04:44:28;31.75;;;17.17;;
22111;SDS011;11222;50.872;4.312;2023-01-30T04:46:53;34.78;;;16.92;;
22111;SDS011;11222;50.872;4.312;2023-01-30T04:49:19;31.88;;;16.85;;
22111;SDS011;11222;50.872;4.312;2023-01-30T04:51:45;31.92;;;17.17;;
22111;SDS011;11222;50.872;4.312;2023-01-30T04:54:10;32.53;;;17.08;;
22111;SDS011;11222;50.872;4.312;2023-01-30T04:56:36;34.97;;;18.40;;
22111;SDS011;11222;50.872;4.312;2023-01-30T04:59:02;34.63;;;16.80;;
22111;SDS011;11222;50.872;4.312;2023-01-30T05:01:34;35.30;;;17.50;;
22111;SDS011;11222;50.872;4.312;2023-01-30T05:04:02;31.27;;;15.82;;
22111;SDS011;11222;50.872;4.312;2023-01-30T05:06:29;31.52;;;15.80;;
22111;SDS011;11222;50.872;4.312;2023-01-30T05:08:55;31.30;;;15.27;;
22111;SDS011;11222;50.872;4.312;2023-01-30T05:11:22;31.50;;;16.27;;
22111;SDS011;11222;50.872;4.312;2023-01-30T05:13:49;33.05;;;16.85;;
22111;SDS011;11222;50.872;4.312;2023-01-30T05:16:16;36.17;;;16.55;;
22111;SDS011;11222;50.872;4.312;2023-01-30T05:18:43;35.13;;;15.57;;
22111;SDS011;11222;50.872;4.312;2023-01-30T05:21:10;27.35;;;15.23;;
22111;SDS011;11222;50.872;4.312;2023-01-30T05:23:38;31.30;;;15.00;;
22111;SDS011;11222;50.872;4.312;2023-01-30T05:26:04;33.33;;;16.15;;
22111;SDS011;11222;50.872;4.312;2023-01-30T05:28:31;25.92;;;14.90;;
22111;SDS011;11222;50.872;4.312;2023-01-30T05:31:04;24.70;;;14.35;;
22111;SDS011;11222;50.872;4.312;2023-01-30T05:33:39;28.42;;;14.48;;
22111;SDS011;11222;50.872;4.312;2023-01-30T05:36:05;31.95;;;15.60;;
22111;SDS011;11222;50.872;4.312;2023-01-30T05:38:32;32.85;;;15.35;;
22111;SDS011;11222;50.872;4.312;2023-01-30T05:41:01;26.48;;;13.73;;
22111;SDS011;11222;50.872;4.312;2023-01-30T05:43:29;26.67;;;13.90;;
22111;SDS011;11222;50.872;4.312;2023-01-30T05:45:55;29.02;;;15.02;;
22111;SDS011;11222;50.872;4.312;2023-01-30T05:48:22;27.45;;;14.65;;
22111;SDS011;11222;50.872;4.312;2023-01-30T05:50:49;28.52;;;13.63;;
22111;SDS011;11222;50.872;4.312;2023-01-30T05:53:16;27.15;;;13.50;;
22111;SDS011;11222;50.872;4.312;2023-01-30T05:55:42;21.33;;;13.00;;
22111;SDS011;11222;50.872;4.312;2023-01-30T05:58:08;24.13;;;12.73;;
22111;SDS011;11222;50.872;4.312;2023-01-30T06:00:34;27.73;;;13.27;;
22111;SDS011;11222;50.872;4.312;2023-01-30T06:03:00;20.02;;;11.70;;
22111;SDS011;11222;50.872;4.312;2023-01-30T06:05:26;22.90;;;12.65;;
22111;SDS011;11222;50.872;4.312;2023-01-30T06:07:51;24.35;;;12.23;;
22111;SDS011;11222;50.872;4.312;2023-01-30T06:10:17;22.92;;;12.23;;
22111;SDS011;11222;50.872;4.312;2023-01-30T06:12:42;28.63;;;13.13;;
22111;SDS011;11222;50.872;4.312;2023-01-30T06:15:08;22.58;;;11.25;;
22111;SDS011;11222;50.872;4.312;2023-01-30T06:17:35;19.05;;;11.65;;
22111;SDS011;11222;50.872;4.312;2023-01-30T06:20:00;20.38;;;11.02;;
22111;SDS011;11222;50.872;4.312;2023-01-30T06:22:26;19.95;;;11.18;;
22111;SDS011;11222;50.872;4.312;2023-01-30T06:24:52;22.17;;;10.63;;
22111;SDS011;11222;50.872;4.312;2023-01-30T06:27:17;20.00;;;11.23;;
22111;SDS011;11222;50.872;4.312;2023-01-30T06:29:43;21.63;;;11.18;;
22111;SDS011;11222;50.872;4.312;2023-01-30T06:32:09;21.90;;;11.02;;
22111;SDS011;11222;50.872;4.312;2023-01-30T06:34:35;17.65;;;10.00;;
22111;SDS011;11222;50.872;4.312;2023-01-30T06:37:00;24.55;;;11.07;;
22111;SDS011;11222;50.872;4.312;2023-01-30T06:39:26;26.98;;;11.18;;
22111;SDS011;11222;50.872;4.312;2023-01-30T06:41:52;21.90;;;11.10;;
22111;SDS011;11222;50.872;4.312;2023-01-30T06:44:17;21.10;;;10.88;;
22111;SDS011;11222;50.872;4.312;2023-01-30T06:46:43;21.58;;;10.55;;
22111;SDS011;11222;50.872;4.312;2023-01-30T06:49:09;19.98;;;10.38;;
22111;SDS011;11222;50.872;4.312;2023-01-30T06:51:34;20.77;;;10.88;;
22111;SDS011;11222;50.872;4.312;2023-01-30T06:54:00;21.05;;;11.10;;
22111;SDS011;11222;50.872;4.312;2023-01-30T06:56:25;21.17;;;10.90;;
22111;SDS011;11222;50.872;4.312;2023-01-30T06:58:51;19.10;;;9.93;;
22111;SDS011;11222;50.872;4.312;2023-01-30T07:01:17;22.42;;;10.57;;
22111;SDS011;11222;50.872;4.312;2023-01-30T07:03:43;25.85;;;10.63;;
22111;SDS011;11222;50.872;4.312;2023-01-30T07:06:09;21.33;;;10.65;;
22111;SDS011;11222;50.872;4.312;2023-01-30T07:08:34;17.80;;;10.40;;
22111;SDS011;11222;50.872;4.312;2023-01-30T07:11:00;19.77;;;10.13;;
22111;SDS011;11222;50.872;4.312;2023-01-30T07:13:28;20.42;;;10.02;;
22111;SDS011;11222;50.872;4.312;2023-01-30T07:15:54;21.23;;;9.48;;
22111;SDS011;11222;50.872;4.312;2023-01-30T07:18:19;17.42;;;9.45;;
22111;SDS011;11222;50.872;4.312;2023-01-30T07:20:46;21.40;;;9.52;;
22111;SDS011;11222;50.872;4.312;2023-01-30T07:23:12;18.30;;;8.57;;
22111;SDS011;11222;50.872;4.312;2023-01-30T07:25:38;21.65;;;9.07;;
22111;SDS011;11222;50.872;4.312;2023-01-30T07:28:04;19.85;;;8.75;;
22111;SDS011;11222;50.872;4.312;2023-01-30T07:30:30;18.80;;;8.30;;
22111;SDS011;11222;50.872;4.312;2023-01-30T07:32:57;20.58;;;8.77;;
22111;SDS011;11222;50.872;4.312;2023-01-30T07:35:24;19.52;;;7.63;;
22111;SDS011;11222;50.872;4.312;2023-01-30T07:37:51;16.27;;;7.60;;
22111;SDS011;11222;50.872;4.312;2023-01-30T07:40:18;13.35;;;7.68;;
22111;SDS011;11222;50.872;4.312;2023-01-30T07:43:06;14.35;;;6.57;;
22111;SDS011;11222;50.872;4.312;2023-01-30T07:45:41;11.95;;;6.18;;
22111;SDS011;11222;50.872;4.312;2023-01-30T07:48:13;16.90;;;8.02;;
22111;SDS011;11222;50.872;4.312;2023-01-30T07:50:41;15.35;;;6.15;;
22111;SDS011;11222;50.872;4.312;2023-01-30T07:53:09;11.55;;;6.10;;
22111;SDS011;11222;50.872;4.312;2023-01-30T07:55:36;12.95;;;5.93;;
22111;SDS011;11222;50.872;4.312;2023-01-30T07:58:02;15.57;;;5.22;;
22111;SDS011;11222;50.872;4.312;2023-01-30T08:00:28;16.75;;;5.78;;
22111;SDS011;11222;50.872;4.312;2023-01-30T08:02:54;15.95;;;5.53;;
22111;SDS011;11222;50.872;4.312;2023-01-30T08:05:19;13.95;;;4.90;;
22111;SDS011;11222;50.872;4.312;2023-01-30T08:07:45;13.50;;;4.80;;
22111;SDS011;11222;50.872;4.312;2023-01-30T08:10:14;11.75;;;4.88;;
22111;SDS011;11222;50.872;4.312;2023-01-30T08:12:40;15.35;;;5.43;;
22111;SDS011;11222;50.872;4.312;2023-01-30T08:15:07;16.55;;;5.28;;
22111;SDS011;11222;50.872;4.312;2023-01-30T08:17:33;15.45;;;5.32;;
22111;SDS011;11222;50.872;4.312;2023-01-30T08:19:59;16.75;;;4.78;;
22111;SDS011;11222;50.872;4.312;2023-01-30T08:22:25;13.18;;;5.72;;
22111;SDS011;11222;50.872;4.312;2023-01-30T08:24:51;14.20;;;4.28;;
22111;SDS011;11222;50.872;4.312;2023-01-30T08:27:17;13.75;;;5.20;;
22111;SDS011;11222;50.872;4.312;2023-01-30T08:29:43;16.42;;;4.75;;
22111;SDS011;11222;50.872;4.312;2023-01-30T08:32:09;13.93;;;4.68;;
22111;SDS011;11222;50.872;4.312;2023-01-30T08:34:35;15.55;;;5.30;;
22111;SDS011;11222;50.872;4.312;2023-01-30T08:37:00;14.73;;;5.25;;
22111;SDS011;11222;50.872;4.312;2023-01-30T08:39:26;13.82;;;4.30;;
22111;SDS011;11222;50.872;4.312;2023-01-30T08:41:52;16.33;;;4.43;;
22111;SDS011;11222;50.872;4.312;2023-01-30T08:44:18;16.33;;;4.63;;
22111;SDS011;11222;50.872;4.312;2023-01-30T08:46:43;12.88;;;3.97;;
22111;SDS011;11222;50.872;4.312;2023-01-30T08:49:09;10.98;;;4.07;;
22111;SDS011;11222;50.872;4.312;2023-01-30T08:51:35;11.95;;;3.28;;
22111;SDS011;11222;50.872;4.312;2023-01-30T08:54:01;9.98;;;3.10;;
22111;SDS011;11222;50.872;4.312;2023-01-30T08:56:26;17.25;;;3.60;;
22111;SDS011;11222;50.872;4.312;2023-01-30T08:58:52;17.13;;;3.42;;
22111;SDS011;11222;50.872;4.312;2023-01-30T09:01:18;16.02;;;3.88;;
22111;SDS011;11222;50.872;4.312;2023-01-30T09:03:43;8.77;;;3.38;;
22111;SDS011;11222;50.872;4.312;2023-01-30T09:06:09;10.35;;;2.72;;
22111;SDS011;11222;50.872;4.312;2023-01-30T09:08:35;6.90;;;3.22;;
22111;SDS011;11222;50.872;4.312;2023-01-30T09:11:02;11.18;;;3.17;;
22111;SDS011;11222;50.872;4.312;2023-01-30T09:13:29;14.05;;;3.08;;
22111;SDS011;11222;50.872;4.312;2023-01-30T09:15:55;13.68;;;3.05;;
22111;SDS011;11222;50.872;4.312;2023-01-30T09:18:22;10.77;;;2.65;;
22111;SDS011;11222;50.872;4.312;2023-01-30T09:20:48;11.00;;;3.42;;
22111;SDS011;11222;50.872;4.312;2023-01-30T09:23:14;12.45;;;3.10;;
22111;SDS011;11222;50.872;4.312;2023-01-30T09:25:40;12.80;;;2.97;;
22111;SDS011;11222;50.872;4.312;2023-01-30T09:28:08;12.73;;;3.45;;
22111;SDS011;11222;50.872;4.312;2023-01-30T09:30:34;12.00;;;3.50;;
22111;SDS011;11222;50.872;4.312;2023-01-30T09:33:00;17.20;;;3.03;;
22111;SDS011;11222;50.872;4.312;2023-01-30T09:35:25;14.85;;;3.85;;
22111;SDS011;11222;50.872;4.312;2023-01-30T09:37:52;14.60;;;3.40;;
22111;SDS011;11222;50.872;4.312;2023-01-30T09:40:22;16.73;;;3.50;;
22111;SDS011;11222;50.872;4.312;2023-01-30T09:45:30;12.32;;;3.13;;
22111;SDS011;11222;50.872;4.312;2023-01-30T09:54:33;16.35;;;3.40;;
22111;SDS011;11222;50.872;4.312;2023-01-30T09:56:39;16.38;;;4.40;;
22111;SDS011;11222;50.872;4.312;2023-01-30T09:59:05;13.40;;;3.40;;
22111;SDS011;11222;50.872;4.312;2023-01-30T10:01:40;13.35;;;3.00;;
22111;SDS011;11222;50.872;4.312;2023-01-30T10:04:22;20.98;;;3.03;;
22111;SDS011;11222;50.872;4.312;2023-01-30T10:06:57;12.00;;;3.15;;
22111;SDS011;11222;50.872;4.312;2023-01-30T10:09:41;20.58;;;3.63;;
22111;SDS011;11222;50.872;4.312;2023-01-30T10:20:29;13.25;;;2.92;;
22111;SDS011;11222;50.872;4.312;2023-01-30T10:23:11;17.63;;;3.30;;
22111;SDS011;11222;50.872;4.312;2023-01-30T10:28:28;14.50;;;3.17;;
22111;SDS011;11222;50.872;4.312;2023-01-30T10:31:05;14.00;;;3.00;;
22111;SDS011;11222;50.872;4.312;2023-01-30T10:34:18;16.70;;;4.03;;
22111;SDS011;11222;50.872;4.312;2023-01-30T10:36:26;24.25;;;3.58;;
22111;SDS011;11222;50.872;4.312;2023-01-30T10:39:33;17.17;;;3.58;;
22111;SDS011;11222;50.872;4.312;2023-01-30T10:42:10;11.20;;;3.60;;
22111;SDS011;11222;50.872;4.312;2023-01-30T10:44:38;14.73;;;3.95;;
22111;SDS011;11222;50.872;4.312;2023-01-30T10:47:13;14.70;;;3.20;;
22111;SDS011;11222;50.872;4.312;2023-01-30T10:50:10;14.10;;;3.42;;
22111;SDS011;11222;50.872;4.312;2023-01-30T10:55:47;13.65;;;3.15;;
22111;SDS011;11222;50.872;4.312;2023-01-30T11:01:23;14.98;;;3.22;;
22111;SDS011;11222;50.872;4.312;2023-01-30T11:04:00;11.40;;;3.42;;
22111;SDS011;11222;50.872;4.312;2023-01-30T11:06:28;11.30;;;2.90;;
22111;SDS011;11222;50.872;4.312;2023-01-30T11:08:55;15.35;;;3.03;;
22111;SDS011;11222;50.872;4.312;2023-01-30T11:16:29;14.43;;;3.47;;
22111;SDS011;11222;50.872;4.312;2023-01-30T11:18:56;13.25;;;3.20;;
22111;SDS011;11222;50.872;4.312;2023-01-30T11:21:25;11.60;;;2.95;;
22111;SDS011;11222;50.872;4.312;2023-01-30T11:23:55;16.60;;;2.90;;
22111;SDS011;11222;50.872;4.312;2023-01-30T11:26:34;9.43;;;2.38;;
22111;SDS011;11222;50.872;4.312;2023-01-30T11:29:13;13.18;;;3.40;;
22111;SDS011;11222;50.872;4.312;2023-01-30T11:31:51;16.60;;;4.25;;
22111;SDS011;11222;50.872;4.312;2023-01-30T11:34:19;14.27;;;3.80;;
22111;SDS011;11222;50.872;4.312;2023-01-30T11:36:46;14.02;;;3.88;;
22111;SDS011;11222;50.872;4.312;2023-01-30T11:41:43;16.58;;;3.08;;
22111;SDS011;11222;50.872;4.312;2023-01-30T11:44:37;18.25;;;4.18;;
22111;SDS011;11222;50.872;4.312;2023-01-30T11:47:07;14.23;;;3.20;;
22111;SDS011;11222;50.872;4.312;2023-01-30T11:49:54;18.98;;;3.53;;
22111;SDS011;11222;50.872;4.312;2023-01-30T11:52:23;17.00;;;3.95;;
22111;SDS011;11222;50.872;4.312;2023-01-30T11:54:52;15.52;;;3.72;;
22111;SDS011;11222;50.872;4.312;2023-01-30T11:57:25;16.45;;;3.25;;
22111;SDS011;11222;50.872;4.312;2023-01-30T11:59:54;14.93;;;4.13;;
22111;SDS011;11222;50.872;4.312;2023-01-30T12:02:30;17.60;;;3.67;;
22111;SDS011;11222;50.872;4.312;2023-01-30T12:07:29;14.73;;;3.72;;
22111;SDS011;11222;50.872;4.312;2023-01-30T12:09:57;10.57;;;3.40;;
22111;SDS011;11222;50.872;4.312;2023-01-30T12:12:34;21.20;;;3.90;;
22111;SDS011;11222;50.872;4.312;2023-01-30T12:15:28;19.13;;;4.30;;
22111;SDS011;11222;50.872;4.312;2023-01-30T12:23:26;19.80;;;3.47;;
22111;SDS011;11222;50.872;4.312;2023-01-30T12:26:42;15.18;;;3.22;;
22111;SDS011;11222;50.872;4.312;2023-01-30T12:29:04;14.35;;;4.05;;
22111;SDS011;11222;50.872;4.312;2023-01-30T12:32:03;18.38;;;3.63;;
22111;SDS011;11222;50.872;4.312;2023-01-30T12:34:33;7.72;;;3.05;;
22111;SDS011;11222;50.872;4.312;2023-01-30T12:37:03;16.45;;;3.17;;
22111;SDS011;11222;50.872;4.312;2023-01-30T12:53:27;16.42;;;3.40;;
22111;SDS011;11222;50.872;4.312;2023-01-30T13:23:00;17.98;;;3.50;;
22111;SDS011;11222;50.872;4.312;2023-01-30T13:28:13;27.95;;;4.28;;
22111;SDS011;11222;50.872;4.312;2023-01-30T13:30:49;26.98;;;4.13;;
22111;SDS011;11222;50.872;4.312;2023-01-30T13:33:21;15.00;;;3.40;;
22111;SDS011;11222;50.872;4.312;2023-01-30T13:36:12;18.70;;;4.07;;
22111;SDS011;11222;50.872;4.312;2023-01-30T13:38:49;18.27;;;4.00;;
22111;SDS011;11222;50.872;4.312;2023-01-30T13:41:30;23.27;;;4.25;;
22111;SDS011;11222;50.872;4.312;2023-01-30T13:44:02;13.05;;;3.15;;
22111;SDS011;11222;50.872;4.312;2023-01-30T13:46:39;24.08;;;4.57;;
22111;SDS011;11222;50.872;4.312;2023-01-30T13:52:01;16.63;;;3.58;;
22111;SDS011;11222;50.872;4.312;2023-01-30T13:57:42;16.40;;;3.40;;
22111;SDS011;11222;50.872;4.312;2023-01-30T14:08:38;14.05;;;3.08;;
22111;SDS011;11222;50.872;4.312;2023-01-30T14:16:43;13.98;;;3.38;;
22111;SDS011;11222;50.872;4.312;2023-01-30T14:22:00;20.52;;;4.47;;
22111;SDS011;11222;50.872;4.312;2023-01-30T14:24:41;19.27;;;4.03;;
22111;SDS011;11222;50.872;4.312;2023-01-30T14:27:25;17.90;;;3.80;;
22111;SDS011;11222;50.872;4.312;2023-01-30T14:29:55;23.58;;;3.80;;
22111;SDS011;11222;50.872;4.312;2023-01-30T14:39:58;17.07;;;4.23;;
22111;SDS011;11222;50.872;4.312;2023-01-30T14:42:28;18.02;;;3.95;;
22111;SDS011;11222;50.872;4.312;2023-01-30T14:45:00;23.92;;;4.35;;
22111;SDS011;11222;50.872;4.312;2023-01-30T14:47:29;21.85;;;4.43;;
22111;SDS011;11222;50.872;4.312;2023-01-30T14:49:56;13.85;;;3.58;;
22111;SDS011;11222;50.872;4.312;2023-01-30T14:55:01;17.63;;;4.20;;
22111;SDS011;11222;50.872;4.312;2023-01-30T14:57:27;19.95;;;4.03;;
22111;SDS011;11222;50.872;4.312;2023-01-30T15:00:03;17.80;;;3.60;;
22111;SDS011;11222;50.872;4.312;2023-01-30T15:02:46;16.30;;;3.90;;
22111;SDS011;11222;50.872;4.312;2023-01-30T15:05:19;21.98;;;3.90;;
22111;SDS011;11222;50.872;4.312;2023-01-30T15:07:55;17.23;;;4.07;;
22111;SDS011;11222;50.872;4.312;2023-01-30T15:11:20;20.85;;;3.70;;
22111;SDS011;11222;50.872;4.312;2023-01-30T15:22:19;21.05;;;4.13;;
22111;SDS011;11222;50.872;4.312;2023-01-30T15:25:17;25.48;;;4.28;;
22111;SDS011;11222;50.872;4.312;2023-01-30T15:33:14;23.92;;;4.25;;
22111;SDS011;11222;50.872;4.312;2023-01-30T15:35:44;22.00;;;3.80;;
22111;SDS011;11222;50.872;4.312;2023-01-30T15:41:04;17.20;;;4.03;;
22111;SDS011;11222;50.872;4.312;2023-01-30T15:51:47;17.52;;;3.58;;
22111;SDS011;11222;50.872;4.312;2023-01-30T15:54:16;29.67;;;4.30;;
22111;SDS011;11222;50.872;4.312;2023-01-30T15:56:44;24.27;;;4.20;;
22111;SDS011;11222;50.872;4.312;2023-01-30T15:59:33;21.05;;;3.88;;
22111;SDS011;11222;50.872;4.312;2023-01-30T16:02:04;20.75;;;4.00;;
22111;SDS011;11222;50.872;4.312;2023-01-30T16:04:48;16.38;;;3.72;;
22111;SDS011;11222;50.872;4.312;2023-01-30T16:07:26;29.33;;;4.57;;
22111;SDS011;11222;50.872;4.312;2023-01-30T16:09:55;20.67;;;4.47;;
22111;SDS011;11222;50.872;4.312;2023-01-30T16:12:26;20.40;;;3.92;;
22111;SDS011;11222;50.872;4.312;2023-01-30T16:14:53;16.02;;;3.50;;
22111;SDS011;11222;50.872;4.312;2023-01-30T16:17:25;32.22;;;5.07;;
22111;SDS011;11222;50.872;4.312;2023-01-30T16:19:54;19.17;;;4.65;;
22111;SDS011;11222;50.872;4.312;2023-01-30T16:22:21;17.27;;;3.78;;
22111;SDS011;11222;50.872;4.312;2023-01-30T16:24:49;23.00;;;4.43;;
22111;SDS011;11222;50.872;4.312;2023-01-30T16:27:18;18.63;;;4.18;;
22111;SDS011;11222;50.872;4.312;2023-01-30T16:29:54;22.60;;;3.70;;
22111;SDS011;11222;50.872;4.312;2023-01-30T16:32:23;13.75;;;3.50;;
22111;SDS011;11222;50.872;4.312;2023-01-30T16:35:13;20.15;;;4.55;;
22111;SDS011;11222;50.872;4.312;2023-01-30T16:37:50;20.38;;;4.25;;
22111;SDS011;11222;50.872;4.312;2023-01-30T16:40:19;16.63;;;3.70;;
22111;SDS011;11222;50.872;4.312;2023-01-30T16:43:31;21.58;;;4.75;;
22111;SDS011;11222;50.872;4.312;2023-01-30T16:50:47;22.27;;;4.65;;
22111;SDS011;11222;50.872;4.312;2023-01-30T16:53:32;26.63;;;4.63;;
22111;SDS011;11222;50.872;4.312;2023-01-30T16:55:58;25.95;;;4.18;;
22111;SDS011;11222;50.872;4.312;2023-01-30T16:58:31;20.75;;;4.68;;
22111;SDS011;11222;50.872;4.312;2023-01-30T17:00:59;33.67;;;4.50;;
22111;SDS011;11222;50.872;4.312;2023-01-30T17:03:34;26.98;;;4.55;;
22111;SDS011;11222;50.872;4.312;2023-01-30T17:06:03;25.85;;;4.13;;
22111;SDS011;11222;50.872;4.312;2023-01-30T17:08:46;30.77;;;4.40;;
22111;SDS011;11222;50.872;4.312;2023-01-30T17:11:28;23.40;;;4.07;;
22111;SDS011;11222;50.872;4.312;2023-01-30T17:14:30;26.27;;;4.70;;
22111;SDS011;11222;50.872;4.312;2023-01-30T17:19:28;19.02;;;4.50;;
22111;SDS011;11222;50.872;4.312;2023-01-30T17:21:54;16.45;;;4.43;;
22111;SDS011;11222;50.872;4.312;2023-01-30T17:24:21;18.05;;;3.72;;
22111;SDS011;11222;50.872;4.312;2023-01-30T17:26:49;24.83;;;4.75;;
22111;SDS011;11222;50.872;4.312;2023-01-30T17:29:17;23.70;;;4.95;;
22111;SDS011;11222;50.872;4.312;2023-01-30T17:31:47;19.20;;;4.47;;
22111;SDS011;11222;50.872;4.312;2023-01-30T17:34:15;23.23;;;4.80;;
22111;SDS011;11222;50.872;4.312;2023-01-30T17:36:42;20.00;;;4.22;;
22111;SDS011;11222;50.872;4.312;2023-01-30T17:39:12;21.42;;;4.25;;
22111;SDS011;11222;50.872;4.312;2023-01-30T17:41:39;22.25;;;4.40;;
22111;SDS011;11222;50.872;4.312;2023-01-30T17:44:05;25.85;;;4.47;;
22111;SDS011;11222;50.872;4.312;2023-01-30T17:46:35;23.08;;;4.32;;
22111;SDS011;11222;50.872;4.312;2023-01-30T17:49:22;22.02;;;4.90;;